Agua Escondida, Mexico

7:04 PM CDT on June 26, 2017 (GMT -0500)
Xoxocotlan International | | Change Station

Elev 4987 ft 17.00 °N, 96.73 °W | Updated 16 minutes ago

Mostly Cloudy
Mostly Cloudy
70 °F
Feels Like 70 °F
N
7
Wind Variable Wind from North

Today
High -- | Low -- °F
--% Chance of Precip.
Yesterday
High -- | Low -- °F
Precip. -- in
Pressure 29.87 in
Visibility 10.0 miles
Clouds Mostly Cloudy 2500 ft
Overcast 10000 ft
Dew Point 61 °F
Humidity 73%
Rainfall 0.00 in
Snow Depth Not available.
6:54 AM 8:00 PM
Waxing Crescent, 12% visible
METAR MMOX 262348Z 35006KT 10SM BKN025 OVC100 21/16 A3018 RMK SLP113 58005 915 8/47/ LWR ST SW W
Pressure 29.87 in
Visibility 10.0 miles
Clouds Mostly Cloudy 2500 ft
Overcast 10000 ft
Dew Point 61 °F
Humidity 73%
Rainfall 0.00 in
Snow Depth Not available.
6:54 AM 8:00 PM
Waxing Crescent, 12% visible
METAR MMOX 262348Z 35006KT 10SM BKN025 OVC100 21/16 A3018 RMK SLP113 58005 915 8/47/ LWR ST SW W

Get Severe Weather Alerts

Thanks for signing up!

Be on the lookout for a verification email in your inbox.

You'll start receiving the daily forecast at 6 AM.

×

10-Day Weather Forecast

No radar image for this location.
×

Almanac

Astronomy

Jun. 26, 2017 Rise Set
Actual Time
Civil Twilight
Nautical Twilight
Astronomical Twilight
Moon
Length of Visible Light
Length of Day
Tomorrow will be .
, % of the Moon is Illuminated

Today's Extremes

Country Highs Country Lows

Community

WunderPhotos

Category 6

Welcome to Category 6. This is the collective home for Weather Underground's featured writeups by Dr. Jeff Masters (right), Bob Henson (left), Chris Burt, and other regular contributors.

Nearby

Air Quality

  Air Quality AQ Index Pollutant
Not available.

Snow Depth

Station Depth Elevation

Earthquake Activity

City Distance Mag. Time & Date
Minimum magnitude displayed is 2.5.

Coastal Water Temperatures

Place Temperature

Stations

Nearby Weather Stations

Station Location Temp. Windchill Dew Point Humidity Wind Precip. Elev Updated Type